Time;durP1;ratioP1;P1;durP2;ratioP2;P2;SDS_P1;SDS_P2;PMS_P1;PMS_P2;Temp;Humidity;BMP_temperature;BMP_pressure;BME280_temperature;BME280_humidity;BME280_pressure;Samples;Min_cycle;Max_cycle;Signal;HPM_P1;HPM_P2
2022/06/29 00:00:15;;;;;;;5.40;5.00;;;;;;;18.80;62.43;101599.34;5060152;28;20412;-78
2022/06/29 00:02:43;;;;;;;5.53;5.07;;;;;;;18.78;62.69;101601.16;5058624;28;20523;-77
2022/06/29 00:05:10;;;;;;;5.07;4.67;;;;;;;18.95;62.38;101592.19;5057786;28;20492;-77
2022/06/29 00:07:36;;;;;;;4.80;4.40;;;;;;;18.96;61.96;101588.66;5057205;28;20438;-77
2022/06/29 00:10:02;;;;;;;5.03;4.63;;;;;;;19.12;61.88;101579.66;5061344;28;20416;-76
2022/06/29 00:12:28;;;;;;;5.17;4.77;;;;;;;18.73;62.89;101586.25;5062473;28;20158;-76
2022/06/29 00:14:55;;;;;;;4.87;4.47;;;;;;;18.87;61.96;101581.66;5061681;28;20471;-75
2022/06/29 00:17:21;;;;;;;5.27;4.87;;;;;;;19.05;62.22;101575.34;5062102;28;20174;-77
2022/06/29 00:19:46;;;;;;;5.00;4.50;;;;;;;18.82;62.74;101580.84;5061520;28;20708;-76
2022/06/29 00:22:12;;;;;;;5.50;4.90;;;;;;;18.54;62.77;101581.16;5061932;28;20180;-76
2022/06/29 00:24:38;;;;;;;5.23;4.83;;;;;;;18.59;63.00;101581.97;5061540;28;20177;-76
2022/06/29 00:27:04;;;;;;;5.10;4.70;;;;;;;18.82;62.01;101587.00;5062376;28;20165;-77
2022/06/29 00:29:30;;;;;;;5.40;4.90;;;;;;;18.81;62.35;101585.25;5061514;28;20443;-77
2022/06/29 00:31:56;;;;;;;5.17;4.67;;;;;;;19.23;61.05;101575.97;5061781;28;20797;-77
2022/06/29 00:34:21;;;;;;;5.13;4.73;;;;;;;18.69;62.40;101580.97;5062042;28;20165;-76
2022/06/29 00:36:46;;;;;;;4.83;4.37;;;;;;;18.58;62.20;101580.22;5061504;28;20261;-77
2022/06/29 00:39:12;;;;;;;4.83;4.30;;;;;;;19.27;60.99;101583.88;5061524;28;20170;-76
2022/06/29 00:41:43;;;;;;;6.60;5.03;;;;;;;18.58;62.30;101587.25;5053431;28;20184;-77
2022/06/29 00:44:17;;;;;;;4.57;4.27;;;;;;;19.18;60.74;101584.84;5040817;28;20202;-77
2022/06/29 00:46:57;;;;;;;4.40;4.10;;;;;;;18.71;61.78;101586.25;5041274;28;20420;-77
2022/06/29 00:49:25;;;;;;;5.17;4.53;;;;;;;18.60;62.21;101582.84;5040723;28;20454;-76
2022/06/29 00:52:03;;;;;;;5.10;4.60;;;;;;;18.72;61.67;101582.72;5041288;28;20436;-76
2022/06/29 00:54:34;;;;;;;4.43;4.03;;;;;;;18.40;62.32;101573.38;5041146;28;20417;-76
2022/06/29 00:57:02;;;;;;;4.60;4.20;;;;;;;18.85;61.13;101568.47;5041324;28;20421;-76
2022/06/29 00:59:29;;;;;;;4.90;4.40;;;;;;;18.39;62.05;101566.34;5041292;28;20471;-77
2022/06/29 01:01:55;;;;;;;4.30;4.00;;;;;;;18.66;61.65;101562.53;5056929;28;20864;-77
2022/06/29 01:04:20;;;;;;;4.47;4.03;;;;;;;18.95;60.92;101557.84;5041184;28;20423;-77
2022/06/29 01:06:45;;;;;;;5.07;4.57;;;;;;;18.36;61.66;101558.47;5041001;28;20171;-76
2022/06/29 01:09:11;;;;;;;4.70;4.30;;;;;;;18.72;61.28;101553.66;5040261;28;20174;-77
2022/06/29 01:11:36;;;;;;;4.70;4.30;;;;;;;18.31;62.23;101552.34;5041603;28;20185;-77
2022/06/29 01:14:02;;;;;;;4.37;4.00;;;;;;;18.39;62.32;101550.50;5040813;28;20254;-76
2022/06/29 01:16:28;;;;;;;4.80;4.40;;;;;;;18.34;62.64;101553.16;5040908;28;20233;-76
2022/06/29 01:18:53;;;;;;;4.87;4.37;;;;;;;18.26;62.04;101554.13;5041435;28;20388;-76
2022/06/29 01:21:20;;;;;;;4.67;4.27;;;;;;;18.18;62.81;101549.81;5040647;28;20212;-76
2022/06/29 01:23:46;;;;;;;4.53;4.13;;;;;;;18.73;61.48;101546.63;5041411;28;20217;-77
2022/06/29 01:26:11;;;;;;;4.50;4.10;;;;;;;18.20;62.29;101559.47;5045206;28;20633;-77
2022/06/29 01:28:39;;;;;;;4.23;3.87;;;;;;;18.10;62.46;101546.34;5044387;28;20277;-75
2022/06/29 01:31:12;;;;;;;4.57;4.10;;;;;;;18.16;62.30;101551.56;5058963;28;20218;-74
2022/06/29 01:33:37;;;;;;;4.37;3.97;;;;;;;18.33;61.50;101545.25;5040599;28;20511;-75
2022/06/29 01:36:03;;;;;;;5.03;4.60;;;;;;;18.69;61.04;101543.13;5040744;28;20452;-76
2022/06/29 01:38:28;;;;;;;5.03;4.27;;;;;;;18.81;60.31;101534.19;5041097;28;20178;-76
2022/06/29 01:40:54;;;;;;;5.50;4.63;;;;;;;18.65;60.55;101534.38;5040656;28;20183;-76
2022/06/29 01:43:19;;;;;;;4.73;4.40;;;;;;;18.99;59.44;101530.47;5040571;28;20591;-76
2022/06/29 01:45:44;;;;;;;4.13;3.83;;;;;;;18.39;61.09;101547.84;5040851;28;20182;-76
2022/06/29 01:48:10;;;;;;;4.50;4.10;;;;;;;18.61;60.52;101534.44;5040278;28;20216;-79
2022/06/29 01:50:35;;;;;;;5.63;4.17;;;;;;;18.34;60.60;101531.19;5040198;28;20240;-76
2022/06/29 01:53:01;;;;;;;4.57;4.27;;;;;;;18.48;60.92;101533.66;5056424;28;20205;-76
2022/06/29 01:55:26;;;;;;;5.47;4.47;;;;;;;18.30;60.75;101530.31;5040200;28;20264;-76
2022/06/29 01:57:51;;;;;;;4.30;4.00;;;;;;;18.88;59.70;101527.06;5042006;28;20185;-77
2022/06/29 02:00:17;;;;;;;4.00;3.70;;;;;;;18.77;58.81;101520.16;5040832;28;20170;-76
2022/06/29 02:02:42;;;;;;;7.10;4.53;;;;;;;18.83;59.40;101519.19;5039869;28;20281;-78
2022/06/29 02:05:08;;;;;;;4.00;3.70;;;;;;;18.37;59.96;101515.31;5040054;28;20178;-78
2022/06/29 02:07:34;;;;;;;4.50;4.07;;;;;;;18.81;59.43;101510.44;5040112;28;20166;-77
2022/06/29 02:09:59;;;;;;;4.57;4.10;;;;;;;18.65;59.36;101507.09;5039969;28;20810;-77
2022/06/29 02:12:25;;;;;;;4.93;4.43;;;;;;;18.26;60.80;101511.91;5039943;28;20178;-77
2022/06/29 02:14:51;;;;;;;4.37;3.97;;;;;;;18.74;59.10;101506.09;5039785;28;20166;-77
2022/06/29 02:17:16;;;;;;;5.20;4.20;;;;;;;18.51;59.58;101513.41;5039669;28;20423;-77
2022/06/29 02:19:41;;;;;;;4.40;4.00;;;;;;;18.18;60.11;101510.22;5039682;28;20174;-77
2022/06/29 02:22:07;;;;;;;4.40;4.00;;;;;;;18.83;58.67;101498.94;5039572;28;20232;-78
2022/06/29 02:24:32;;;;;;;4.20;3.80;;;;;;;18.43;59.25;101509.97;5038731;28;20226;-77
2022/06/29 02:26:58;;;;;;;4.30;3.90;;;;;;;18.67;59.36;101502.66;5042363;28;20220;-77
2022/06/29 02:29:23;;;;;;;4.20;3.90;;;;;;;18.42;59.44;101499.44;5040110;28;20285;-77
2022/06/29 02:34:44;;;;;;;4.13;3.83;;;;;;;18.73;59.08;101489.38;5039515;28;20220;-78
2022/06/29 02:37:11;;;;;;;5.23;3.60;;;;;;;18.18;60.00;101493.50;5039517;28;20388;-76
2022/06/29 02:39:36;;;;;;;4.33;3.93;;;;;;;18.51;59.35;101489.63;5039624;28;20490;-76
2022/06/29 02:42:01;;;;;;;4.10;3.80;;;;;;;18.80;58.91;101483.13;5039393;28;20427;-77
2022/06/29 02:44:27;;;;;;;4.30;3.90;;;;;;;18.49;58.72;101480.84;5039491;28;20459;-78
2022/06/29 02:46:52;;;;;;;4.33;4.03;;;;;;;18.60;59.20;101485.13;5038814;28;20178;-77
2022/06/29 02:49:18;;;;;;;4.07;3.77;;;;;;;18.64;58.40;101484.22;5038991;28;20579;-77
2022/06/29 02:51:43;;;;;;;4.73;4.00;;;;;;;18.69;58.45;101475.31;5039681;28;20170;-77
2022/06/29 02:54:08;;;;;;;4.40;4.10;;;;;;;18.37;59.43;101485.41;5038842;28;20174;-77
2022/06/29 02:56:34;;;;;;;4.80;4.17;;;;;;;18.66;58.68;101479.78;5039090;28;20253;-77
2022/06/29 02:58:59;;;;;;;4.70;4.30;;;;;;;18.87;57.84;101475.13;5039401;28;20174;-77
2022/06/29 03:01:25;;;;;;;4.83;4.47;;;;;;;19.30;56.95;101474.56;5038702;28;20536;-77
2022/06/29 03:03:50;;;;;;;4.43;4.07;;;;;;;18.75;57.53;101466.44;5038595;28;20209;-77
2022/06/29 03:06:15;;;;;;;4.33;4.03;;;;;;;18.35;58.39;101481.00;5039245;28;20198;-76
2022/06/29 03:08:41;;;;;;;5.63;3.80;;;;;;;18.40;58.87;101470.41;5037963;28;20174;-77
2022/06/29 03:11:06;;;;;;;4.40;4.00;;;;;;;18.20;60.09;101470.63;5038792;28;20181;-77
2022/06/29 03:13:32;;;;;;;4.63;3.80;;;;;;;18.41;58.67;101468.63;5038978;28;20201;-76
2022/06/29 03:15:57;;;;;;;4.20;3.80;;;;;;;18.12;59.04;101470.69;5037657;28;20229;-77
2022/06/29 03:18:22;;;;;;;4.27;3.90;;;;;;;18.54;59.75;101469.34;5038539;28;20578;-76
2022/06/29 03:20:48;;;;;;;4.20;3.80;;;;;;;18.98;56.80;101460.03;5039065;28;20208;-77
2022/06/29 03:23:13;;;;;;;4.53;4.10;;;;;;;18.43;58.83;101466.84;5038157;28;20205;-77
2022/06/29 03:25:39;;;;;;;4.50;4.10;;;;;;;18.00;59.56;101473.44;5038561;28;20181;-77
2022/06/29 03:28:04;;;;;;;4.23;3.80;;;;;;;18.15;59.33;101468.00;5039002;28;20189;-77
2022/06/29 03:30:30;;;;;;;4.23;3.83;;;;;;;18.14;60.07;101471.56;5038452;28;20245;-77
2022/06/29 03:32:55;;;;;;;5.10;4.43;;;;;;;18.78;58.21;101469.06;5038115;28;20224;-77
2022/06/29 03:35:21;;;;;;;4.30;3.90;;;;;;;18.66;57.87;101471.88;5038696;28;20174;-77
2022/06/29 03:37:46;;;;;;;4.30;3.90;;;;;;;18.45;58.68;101468.56;5038166;28;20174;-78
2022/06/29 03:40:12;;;;;;;4.07;3.77;;;;;;;19.69;55.23;101464.25;5038245;28;20269;-77
2022/06/29 03:42:38;;;;;;;3.87;3.57;;;;;;;20.04;53.00;101460.16;5038262;28;20205;-78
2022/06/29 03:45:03;;;;;;;3.90;3.60;;;;;;;20.53;52.27;101464.47;5037679;28;20692;-77
2022/06/29 03:47:29;;;;;;;4.10;3.70;;;;;;;20.93;51.17;101465.47;5038945;28;20170;-76
2022/06/29 03:49:54;;;;;;;4.23;3.83;;;;;;;21.86;48.47;101450.84;5037990;28;20170;-76
2022/06/29 03:52:20;;;;;;;3.90;3.50;;;;;;;20.68;51.07;101462.41;5038119;28;20178;-76
2022/06/29 03:54:45;;;;;;;4.23;3.87;;;;;;;20.11;52.14;101453.81;5037982;28;20552;-76
2022/06/29 03:57:11;;;;;;;4.00;3.70;;;;;;;20.28;51.83;101455.28;5040805;28;20425;-76
2022/06/29 03:59:36;;;;;;;3.93;3.40;;;;;;;20.75;51.21;101457.91;5038531;28;20181;-76
2022/06/29 04:02:01;;;;;;;4.23;3.83;;;;;;;20.19;52.51;101457.19;5038158;28;20173;-76
2022/06/29 04:04:27;;;;;;;3.90;3.60;;;;;;;19.89;53.06;101450.72;5038112;28;20205;-75
2022/06/29 04:06:52;;;;;;;4.20;3.80;;;;;;;19.41;54.14;101456.75;5037942;28;20185;-77
2022/06/29 04:09:18;;;;;;;3.90;3.60;;;;;;;19.59;54.63;101452.94;5038156;28;20436;-76
2022/06/29 04:11:49;;;;;;;4.23;3.83;;;;;;;20.35;52.66;101441.03;5038676;28;20441;-75
2022/06/29 04:14:21;;;;;;;5.90;3.60;;;;;;;20.83;51.26;101454.16;5038024;28;20181;-76
2022/06/29 04:16:46;;;;;;;4.40;3.90;;;;;;;19.96;52.45;101447.03;5037750;28;20464;-76
2022/06/29 04:19:12;;;;;;;4.20;3.90;;;;;;;20.01;52.71;101454.88;5037751;28;20427;-76
2022/06/29 04:21:37;;;;;;;4.70;3.60;;;;;;;19.76;53.47;101452.66;5037864;28;20558;-76
2022/06/29 04:24:03;;;;;;;8.33;5.63;;;;;;;19.77;52.65;101454.41;5054100;28;20202;-77
2022/06/29 04:26:28;;;;;;;5.10;3.77;;;;;;;19.74;54.09;101450.94;5038059;28;20421;-76
2022/06/29 04:28:54;;;;;;;3.93;3.53;;;;;;;20.29;52.43;101449.94;5037758;28;20292;-76
2022/06/29 04:31:19;;;;;;;4.00;3.70;;;;;;;19.06;54.91;101446.72;5038241;28;20166;-76
2022/06/29 04:33:45;;;;;;;4.27;3.50;;;;;;;19.84;53.07;101453.41;5037658;28;20186;-75
2022/06/29 04:36:10;;;;;;;4.07;3.70;;;;;;;20.97;51.33;101445.03;5037948;28;20203;-76
2022/06/29 04:38:36;;;;;;;4.03;3.63;;;;;;;20.78;50.46;101452.53;5038415;28;20433;-76
2022/06/29 04:41:01;;;;;;;6.97;3.50;;;;;;;20.50;50.74;101447.78;5037833;28;20182;-70
2022/06/29 04:43:27;;;;;;;4.00;3.57;;;;;;;20.53;51.40;101445.94;5037592;28;20221;-76
2022/06/29 04:48:37;;;;;;;4.13;3.83;;;;;;;21.33;49.12;101447.75;5038070;28;20247;-76
2022/06/29 04:51:02;;;;;;;5.20;3.93;;;;;;;20.53;51.25;101453.88;5053759;28;20725;-75
2022/06/29 04:53:28;;;;;;;4.10;3.70;;;;;;;20.12;51.46;101454.69;5045946;28;20196;-78
2022/06/29 04:55:53;;;;;;;4.50;3.60;;;;;;;21.10;49.57;101443.84;5057721;28;20555;-77
2022/06/29 04:58:18;;;;;;;4.27;3.70;;;;;;;21.19;49.77;101451.59;5041757;28;20175;-77
2022/06/29 05:00:44;;;;;;;4.07;3.70;;;;;;;21.97;46.63;101450.56;5048797;28;20546;-78
2022/06/29 05:03:09;;;;;;;4.37;3.97;;;;;;;21.42;48.46;101444.88;5061195;28;20208;-77
2022/06/29 05:05:34;;;;;;;3.73;3.43;;;;;;;22.15;46.99;101441.25;5061594;28;20252;-77
2022/06/29 05:08:00;;;;;;;3.93;3.63;;;;;;;22.92;44.57;101432.88;5060988;28;20176;-75
2022/06/29 05:10:25;;;;;;;4.10;3.63;;;;;;;22.30;45.22;101450.56;5043896;28;20190;-77
2022/06/29 05:12:51;;;;;;;4.10;3.57;;;;;;;22.11;45.99;101447.56;5041300;28;20543;-77
2022/06/29 05:15:16;;;;;;;7.43;3.63;;;;;;;23.15;44.50;101440.16;5040826;28;20276;-76
2022/06/29 05:17:41;;;;;;;3.60;3.30;;;;;;;22.79;43.70;101432.34;5041224;28;20170;-77
2022/06/29 05:20:09;;;;;;;4.67;3.50;;;;;;;23.19;44.11;101430.25;5041293;28;20210;-77
2022/06/29 05:22:35;;;;;;;3.90;3.50;;;;;;;23.47;43.57;101440.88;5040863;28;20198;-77
2022/06/29 05:25:01;;;;;;;4.90;4.03;;;;;;;24.04;42.62;101435.41;5040653;28;20687;-77
2022/06/29 05:27:26;;;;;;;4.43;3.80;;;;;;;24.07;41.48;101440.63;5040871;28;20436;-76
2022/06/29 05:29:52;;;;;;;4.27;3.87;;;;;;;24.49;41.12;101432.00;5040337;28;20476;-76
2022/06/29 05:32:17;;;;;;;3.50;3.20;;;;;;;22.77;44.51;101433.31;5030999;28;20179;-76
2022/06/29 05:34:42;;;;;;;5.47;3.47;;;;;;;24.50;40.18;101435.53;5033818;28;20186;-75
2022/06/29 05:37:08;;;;;;;9.00;3.50;;;;;;;23.35;42.84;101436.84;5040165;28;20174;-70
2022/06/29 05:39:33;;;;;;;3.63;3.33;;;;;;;24.28;41.13;101428.31;5033653;28;20190;-76
2022/06/29 05:41:58;;;;;;;5.27;3.13;;;;;;;24.62;39.84;101431.56;5030766;28;20181;-77
2022/06/29 05:44:24;;;;;;;5.57;3.50;;;;;;;26.67;36.92;101422.00;5039684;28;20492;-76
2022/06/29 05:46:49;;;;;;;3.87;3.23;;;;;;;25.43;38.46;101434.59;5050685;28;20213;-76
2022/06/29 05:49:15;;;;;;;4.67;3.30;;;;;;;24.51;40.98;101434.59;5038903;28;20228;-76
2022/06/29 05:51:40;;;;;;;3.63;3.30;;;;;;;25.36;38.93;101434.00;5039207;28;20188;-75
2022/06/29 05:54:06;;;;;;;3.50;3.20;;;;;;;25.40;39.48;101440.94;5039195;28;20231;-78
2022/06/29 05:56:32;;;;;;;3.80;3.27;;;;;;;24.75;40.05;101439.94;5039715;28;20532;-78
2022/06/29 05:58:57;;;;;;;4.97;3.20;;;;;;;23.92;41.48;101433.19;5026828;28;20183;-77
2022/06/29 06:01:22;;;;;;;3.80;3.20;;;;;;;24.03;41.80;101439.00;5026757;28;20213;-79
2022/06/29 06:03:48;;;;;;;3.00;2.80;;;;;;;24.15;42.08;101435.91;5035691;28;20217;-76
2022/06/29 06:06:13;;;;;;;4.33;3.30;;;;;;;25.93;38.77;101422.69;5038833;28;20186;-79
2022/06/29 06:08:39;;;;;;;8.73;3.60;;;;;;;24.58;41.22;101443.22;5035224;28;20209;-75
2022/06/29 06:11:04;;;;;;;4.80;3.80;;;;;;;25.98;39.08;101428.66;5017339;28;20182;-75
2022/06/29 06:13:29;;;;;;;3.50;3.20;;;;;;;25.82;39.52;101425.84;5038957;28;20189;-76
2022/06/29 06:15:55;;;;;;;5.03;3.43;;;;;;;25.85;39.05;101423.88;5050575;28;20324;-75
2022/06/29 06:18:20;;;;;;;6.10;4.00;;;;;;;25.85;39.13;101429.22;5041538;28;20198;-75
2022/06/29 06:20:46;;;;;;;4.10;3.17;;;;;;;26.61;38.21;101425.84;5058297;28;20227;-78
2022/06/29 06:23:11;;;;;;;3.37;3.07;;;;;;;25.25;41.05;101430.84;5058660;28;20324;-76
2022/06/29 06:25:37;;;;;;;7.27;3.37;;;;;;;24.83;41.92;101425.38;5057466;28;20535;-79
2022/06/29 06:28:02;;;;;;;3.50;3.20;;;;;;;25.05;42.13;101435.22;5052964;28;20196;-79
2022/06/29 06:30:28;;;;;;;4.73;3.30;;;;;;;26.28;39.88;101426.47;5048530;28;20217;-78
2022/06/29 06:32:53;;;;;;;3.67;3.30;;;;;;;25.42;41.29;101433.72;5056215;28;20554;-77
2022/06/29 06:35:20;;;;;;;4.70;3.50;;;;;;;26.38;39.71;101418.91;5057957;28;20543;-78
2022/06/29 06:37:46;;;;;;;3.80;3.50;;;;;;;26.93;38.67;101412.78;5049615;28;20193;-78
2022/06/29 06:42:55;;;;;;;3.90;3.30;;;;;;;26.75;39.33;101405.63;5047740;28;20470;-79
2022/06/29 06:45:21;;;;;;;5.80;3.27;;;;;;;27.81;37.66;101404.84;5056975;28;20449;-78
2022/06/29 06:47:46;;;;;;;4.87;3.60;;;;;;;27.72;38.11;101404.41;5057405;28;20533;-78
2022/06/29 06:50:11;;;;;;;5.70;3.50;;;;;;;28.36;36.56;101406.41;5057016;28;20571;-76
2022/06/29 06:52:37;;;;;;;6.33;3.53;;;;;;;28.34;37.20;101394.91;5058720;28;20189;-77
2022/06/29 06:55:03;;;;;;;9.20;3.20;;;;;;;26.45;39.39;101406.97;5057909;28;20265;-77
2022/06/29 06:57:28;;;;;;;4.30;3.90;;;;;;;26.91;39.58;101413.78;5054664;28;20300;-78
2022/06/29 06:59:53;;;;;;;4.43;4.03;;;;;;;28.28;37.49;101398.78;5058414;28;20185;-78
2022/06/29 07:02:21;;;;;;;4.13;3.27;;;;;;;27.74;38.35;101401.63;5052428;28;20182;-79
2022/06/29 07:04:47;;;;;;;5.23;3.50;;;;;;;27.92;37.99;101394.44;5059465;28;20182;-78
2022/06/29 07:07:13;;;;;;;4.43;3.63;;;;;;;27.78;38.60;101397.84;5062546;28;20451;-76
2022/06/29 07:09:39;;;;;;;8.30;3.70;;;;;;;28.45;36.94;101399.69;5057958;28;20254;-77
2022/06/29 07:12:05;;;;;;;5.40;3.47;;;;;;;28.45;36.75;101400.53;5057605;28;20519;-78
2022/06/29 07:14:30;;;;;;;4.43;3.30;;;;;;;27.41;39.10;101393.53;5058036;28;20185;-78
2022/06/29 07:16:56;;;;;;;4.37;3.30;;;;;;;26.65;41.01;101389.13;5050836;28;20282;-77
2022/06/29 07:19:22;;;;;;;5.43;3.30;;;;;;;25.95;42.11;101394.97;5037399;28;20324;-78
2022/06/29 07:21:47;;;;;;;3.57;3.27;;;;;;;25.52;43.04;101392.38;5043579;28;20261;-77
2022/06/29 07:24:12;;;;;;;5.17;3.73;;;;;;;24.31;46.10;101390.03;5041337;28;20218;-77
2022/06/29 07:26:38;;;;;;;4.43;3.67;;;;;;;25.94;42.49;101393.22;5040192;28;20185;-78
2022/06/29 07:29:03;;;;;;;4.30;3.70;;;;;;;26.35;42.02;101385.16;5045322;28;20202;-77
2022/06/29 07:31:29;;;;;;;4.33;3.73;;;;;;;25.92;41.81;101402.25;5037948;28;20178;-76
2022/06/29 07:33:54;;;;;;;6.43;3.23;;;;;;;25.26;43.40;101385.41;5007642;28;20208;-81
2022/06/29 07:36:20;;;;;;;4.00;3.70;;;;;;;24.88;44.77;101386.06;5044378;28;20185;-81
2022/06/29 07:38:45;;;;;;;4.17;3.87;;;;;;;25.33;43.89;101383.34;5040376;28;20579;-81
2022/06/29 07:41:11;;;;;;;5.77;3.73;;;;;;;27.18;40.13;101379.44;5031020;28;20252;-81
2022/06/29 07:43:37;;;;;;;4.07;3.70;;;;;;;26.93;40.48;101383.34;5046662;28;20300;-78
2022/06/29 07:46:05;;;;;;;6.40;4.10;;;;;;;27.64;39.11;101369.06;5038517;28;20182;-79
2022/06/29 07:48:30;;;;;;;4.50;3.70;;;;;;;28.68;37.74;101371.59;5020264;28;20286;-81
2022/06/29 07:50:56;;;;;;;4.50;3.57;;;;;;;26.95;40.47;101372.56;5032571;28;20897;-83
2022/06/29 07:53:21;;;;;;;4.10;3.70;;;;;;;27.13;40.13;101374.34;5020667;28;20174;-76
2022/06/29 07:55:47;;;;;;;4.00;3.60;;;;;;;28.32;38.54;101369.97;5040896;28;20420;-78
2022/06/29 07:58:13;;;;;;;4.03;3.73;;;;;;;28.62;37.14;101371.88;5038048;28;20440;-84
2022/06/29 08:00:39;;;;;;;3.93;3.43;;;;;;;27.94;38.81;101372.91;5037876;28;20170;-80
2022/06/29 08:03:04;;;;;;;5.80;3.97;;;;;;;28.52;37.37;101359.03;5037172;28;20514;-84
2022/06/29 08:05:30;;;;;;;4.40;3.50;;;;;;;27.38;39.78;101373.13;5039587;28;20181;-83
2022/06/29 08:07:55;;;;;;;4.07;3.67;;;;;;;27.32;39.89;101365.34;5037795;28;20186;-86
2022/06/29 08:10:21;;;;;;;6.00;3.80;;;;;;;27.75;39.62;101365.84;5038004;28;20236;-84
2022/06/29 08:12:46;;;;;;;6.77;3.47;;;;;;;29.41;36.28;101376.34;5038014;28;20447;-85
2022/06/29 08:15:12;;;;;;;5.13;4.17;;;;;;;29.21;36.35;101381.03;5028245;28;20229;-83
2022/06/29 08:17:37;;;;;;;5.97;3.93;;;;;;;27.72;39.21;101366.88;5058185;28;20264;-82
2022/06/29 08:20:03;;;;;;;4.20;3.80;;;;;;;29.30;36.93;101357.31;5058329;28;20472;-86
2022/06/29 08:22:29;;;;;;;5.47;3.60;;;;;;;27.08;40.42;101368.34;5057248;28;20535;-78
2022/06/29 08:24:54;;;;;;;3.90;3.50;;;;;;;29.29;37.10;101356.44;5057299;28;20510;-73
2022/06/29 08:27:22;;;;;;;3.97;3.17;;;;;;;28.58;37.95;101357.81;5057800;28;20543;-72
2022/06/29 08:29:48;;;;;;;5.20;3.60;;;;;;;28.70;38.14;101367.03;5046812;28;20181;-71
2022/06/29 08:32:13;;;;;;;4.70;3.77;;;;;;;28.56;38.12;101357.91;5072197;28;20431;-78
2022/06/29 08:34:39;;;;;;;3.90;3.57;;;;;;;30.40;34.68;101355.00;5068055;28;20431;-76
2022/06/29 08:37:05;;;;;;;6.30;3.47;;;;;;;28.60;37.71;101361.25;5079472;28;20177;-73
2022/06/29 08:39:30;;;;;;;4.10;3.77;;;;;;;28.89;37.80;101365.00;5079973;28;20181;-74
2022/06/29 08:41:56;;;;;;;3.87;3.50;;;;;;;30.21;35.44;101349.06;5080572;28;20263;-76
2022/06/29 08:44:22;;;;;;;5.10;3.50;;;;;;;30.22;35.45;101357.03;5077591;28;20544;-74
2022/06/29 08:46:48;;;;;;;4.10;3.80;;;;;;;31.00;34.43;101352.03;5076008;28;20509;-73
2022/06/29 08:49:13;;;;;;;4.13;3.73;;;;;;;31.24;33.47;101366.59;5080910;28;20185;-73
2022/06/29 08:51:39;;;;;;;5.13;3.90;;;;;;;31.53;33.35;101344.00;5080214;28;20181;-75
2022/06/29 08:54:08;;;;;;;4.70;4.20;;;;;;;30.70;34.68;101355.81;5080532;28;20218;-75
2022/06/29 08:56:34;;;;;;;4.40;3.30;;;;;;;30.36;35.12;101352.59;5080521;28;20177;-75
2022/06/29 08:59:01;;;;;;;6.00;3.57;;;;;;;31.52;33.59;101359.28;5080894;28;20415;-71
2022/06/29 09:01:28;;;;;;;3.70;3.40;;;;;;;32.02;32.65;101353.16;5080960;28;20426;-71
2022/06/29 09:03:54;;;;;;;8.00;3.30;;;;;;;31.81;33.01;101359.13;5081069;28;20486;-73
2022/06/29 09:06:19;;;;;;;3.40;3.10;;;;;;;30.42;35.35;101354.91;5080623;28;20454;-71
2022/06/29 09:08:45;;;;;;;5.90;3.73;;;;;;;32.32;32.44;101357.34;5080832;28;20173;-72
2022/06/29 09:11:30;;;;;;;5.20;3.53;;;;;;;33.00;31.01;101349.63;5080522;28;20208;-72
2022/06/29 09:14:18;;;;;;;7.17;3.30;;;;;;;31.68;33.05;101345.63;5079796;28;20191;-74
2022/06/29 09:16:49;;;;;;;4.17;3.40;;;;;;;30.81;34.35;101347.91;5080421;28;20919;-70
2022/06/29 09:19:18;;;;;;;3.70;3.40;;;;;;;32.33;32.40;101342.88;5079704;28;20434;-70
2022/06/29 09:21:48;;;;;;;4.33;3.23;;;;;;;32.36;32.22;101342.66;5080656;28;20411;-74
2022/06/29 09:24:15;;;;;;;14.37;4.30;;;;;;;31.70;33.18;101340.13;5080595;28;20463;-70
2022/06/29 09:26:41;;;;;;;3.70;3.40;;;;;;;33.51;30.98;101326.84;5080113;28;20506;-70
2022/06/29 09:29:26;;;;;;;3.57;3.33;;;;;;;30.27;35.26;101334.34;5080109;28;20860;-72
2022/06/29 09:32:00;;;;;;;4.40;3.40;;;;;;;32.36;32.27;101332.72;5080660;28;20476;-70
2022/06/29 09:34:27;;;;;;;3.37;3.00;;;;;;;33.23;29.98;101337.94;5080180;28;20434;-74
2022/06/29 09:36:56;;;;;;;4.10;3.33;;;;;;;31.20;32.62;101330.06;5079362;28;20502;-72
2022/06/29 09:39:38;;;;;;;6.80;3.50;;;;;;;30.87;34.19;101323.25;5080214;28;20411;-70
2022/06/29 09:42:12;;;;;;;4.10;3.30;;;;;;;30.26;35.13;101328.13;5078207;28;20423;-70
2022/06/29 09:44:38;;;;;;;4.07;3.77;;;;;;;31.49;33.43;101315.53;5079641;28;20855;-71
2022/06/29 09:47:06;;;;;;;4.10;3.70;;;;;;;30.20;34.15;101323.13;5079896;28;20532;-72
2022/06/29 09:49:33;;;;;;;7.50;3.80;;;;;;;31.89;32.66;101327.09;5079868;28;20220;-72
2022/06/29 09:52:00;;;;;;;4.03;3.73;;;;;;;32.11;32.07;101319.25;5079848;28;20426;-71
2022/06/29 09:54:36;;;;;;;5.90;3.70;;;;;;;32.69;31.01;101319.50;5081246;28;20816;-71
2022/06/29 09:57:02;;;;;;;3.73;3.30;;;;;;;31.80;31.54;101316.94;5080388;28;20455;-70
2022/06/29 10:05:04;;;;;;;5.03;3.50;;;;;;;31.01;32.53;101316.06;5079543;28;20446;-71
2022/06/29 10:07:30;;;;;;;4.10;3.70;;;;;;;31.05;33.44;101314.91;5079508;28;20702;-71
2022/06/29 10:09:57;;;;;;;3.83;3.43;;;;;;;31.94;32.21;101315.09;5079496;28;20414;-72
2022/06/29 10:15:47;;;;;;;3.90;3.70;;;;;;;32.36;31.55;101303.03;5063626;28;20500;-70
2022/06/29 10:18:37;;;;;;;3.97;3.67;;;;;;;32.26;31.05;101309.22;5053669;28;20459;-69
2022/06/29 10:21:15;;;;;;;3.40;3.20;;;;;;;31.06;32.71;101314.81;5057259;28;20432;-70
2022/06/29 10:23:50;;;;;;;4.30;3.70;;;;;;;30.53;33.38;101309.34;5045729;28;20470;-70
2022/06/29 10:26:32;;;;;;;3.70;3.40;;;;;;;32.73;30.80;101296.75;5048769;28;20427;-72
2022/06/29 10:29:09;;;;;;;3.57;3.27;;;;;;;32.31;30.83;101301.66;5058796;28;20427;-70
2022/06/29 10:32:02;;;;;;;3.60;3.30;;;;;;;32.21;30.86;101298.78;5058108;28;20430;-69
2022/06/29 10:34:34;;;;;;;3.40;3.20;;;;;;;32.07;31.10;101305.16;5058121;28;20443;-69
2022/06/29 10:37:02;;;;;;;4.17;3.33;;;;;;;32.35;30.69;101297.75;5058164;28;20436;-70
2022/06/29 10:39:43;;;;;;;9.83;3.60;;;;;;;32.31;30.71;101286.31;5058061;28;20744;-71
2022/06/29 10:45:08;;;;;;;3.57;3.20;;;;;;;30.71;33.59;101277.63;5038784;28;20405;-71
2022/06/29 10:47:34;;;;;;;8.70;3.67;;;;;;;31.80;31.50;101268.41;5051052;28;20439;-71
2022/06/29 10:50:14;;;;;;;9.93;4.63;;;;;;;31.78;31.41;101282.97;5058563;28;20684;-71
2022/06/29 10:52:40;;;;;;;85.87;8.87;;;;;;;31.37;32.70;101266.91;5057814;28;20343;-72
2022/06/29 10:55:07;;;;;;;4.43;3.70;;;;;;;30.68;33.50;101261.72;5058283;28;20472;-71
2022/06/29 10:57:36;;;;;;;4.07;3.77;;;;;;;28.61;35.85;101269.09;5058064;28;20539;-71
2022/06/29 11:00:06;;;;;;;27.40;4.93;;;;;;;31.52;31.40;101262.25;5050252;28;20817;-71
2022/06/29 11:02:31;;;;;;;33.17;7.17;;;;;;;32.66;30.08;101260.38;5038408;28;20425;-71
2022/06/29 11:04:58;;;;;;;4.33;3.97;;;;;;;30.66;32.09;101260.09;5038448;28;20428;-70
2022/06/29 11:12:54;;;;;;;6.27;4.13;;;;;;;29.62;33.84;101253.28;5047730;28;20455;-70
2022/06/29 11:18:07;;;;;;;4.87;4.50;;;;;;;29.68;35.66;101252.00;5044716;28;20831;-70
2022/06/29 11:20:33;;;;;;;3.97;3.60;;;;;;;29.81;34.57;101250.28;5057558;28;20440;-70
2022/06/29 11:22:58;;;;;;;4.93;4.50;;;;;;;29.87;35.21;101243.69;5057978;28;20455;-70
2022/06/29 11:25:24;;;;;;;4.20;3.53;;;;;;;28.64;35.58;101258.22;5057962;28;20561;-71
2022/06/29 11:27:50;;;;;;;4.63;4.23;;;;;;;28.47;36.39;101267.22;5058352;28;20173;-69
2022/06/29 11:30:21;;;;;;;5.70;5.20;;;;;;;28.65;35.44;101248.38;5057631;28;20868;-69
2022/06/29 11:32:48;;;;;;;5.40;5.00;;;;;;;30.70;33.01;101246.34;5057833;28;20166;-68
2022/06/29 11:35:16;;;;;;;3.97;3.70;;;;;;;30.45;32.29;101249.81;5040092;28;20432;-68
2022/06/29 11:37:49;;;;;;;3.83;3.60;;;;;;;29.50;33.99;101246.84;5056064;28;20435;-69
2022/06/29 11:40:18;;;;;;;5.43;3.73;;;;;;;28.29;36.69;101258.41;5057270;28;20490;-68
2022/06/29 11:45:47;;;;;;;4.00;3.60;;;;;;;28.49;34.11;101254.56;5057304;28;20438;-70
2022/06/29 11:48:20;;;;;;;4.13;3.83;;;;;;;28.54;34.43;101249.81;5057611;28;20442;-70
2022/06/29 11:50:54;;;;;;;3.83;3.53;;;;;;;29.29;33.29;101242.78;5038349;28;20432;-69
2022/06/29 11:53:36;;;;;;;4.50;3.40;;;;;;;29.30;32.54;101236.47;5056776;28;20420;-70